createdAt,value
2023-04-15T00:01:58.515Z,3.70
2023-04-15T00:04:25.794Z,5.20
2023-04-15T00:06:54.183Z,4.50
2023-04-15T00:09:21.295Z,5.10
2023-04-15T00:11:49.710Z,4.10
2023-04-15T00:14:21.546Z,3.80
2023-04-15T00:16:54.908Z,3.60
2023-04-15T00:19:21.663Z,3.70
2023-04-15T00:21:53.185Z,3.40
2023-04-15T00:24:20.033Z,4.00
2023-04-15T00:26:46.958Z,3.70
2023-04-15T00:29:19.807Z,3.80
2023-04-15T00:31:46.813Z,4.20
2023-04-15T00:34:14.474Z,3.70
2023-04-15T00:36:47.232Z,3.90
2023-04-15T00:39:14.307Z,4.20
2023-04-15T00:41:43.803Z,4.10
2023-04-15T00:44:10.830Z,4.00
2023-04-15T00:46:39.291Z,3.90
2023-04-15T00:49:12.699Z,4.70
2023-04-15T00:51:41.776Z,4.80
2023-04-15T00:54:08.555Z,4.70
2023-04-15T00:56:36.451Z,4.30
2023-04-15T00:59:05.691Z,4.60
2023-04-15T01:01:36.220Z,4.60
2023-04-15T01:04:04.081Z,4.90
2023-04-15T01:06:31.867Z,4.70
2023-04-15T01:08:59.481Z,4.80
2023-04-15T01:11:26.513Z,5.00
2023-04-15T01:13:55.475Z,4.80
2023-04-15T01:16:22.381Z,5.00
2023-04-15T01:18:49.286Z,4.90
2023-04-15T01:21:16.499Z,4.60
2023-04-15T01:23:43.312Z,4.60
2023-04-15T01:26:14.508Z,4.80
2023-04-15T01:28:42.029Z,4.80
2023-04-15T01:31:11.096Z,5.00
2023-04-15T01:33:38.440Z,5.30
2023-04-15T01:36:08.215Z,5.00
2023-04-15T01:38:36.365Z,4.70
2023-04-15T01:41:07.581Z,5.10
2023-04-15T01:43:36.600Z,4.90
2023-04-15T01:46:03.729Z,5.20
2023-04-15T01:48:32.950Z,5.10
2023-04-15T01:51:01.666Z,5.30
2023-04-15T01:53:29.652Z,5.40
2023-04-15T01:55:56.684Z,5.60
2023-04-15T01:58:24.048Z,5.70
2023-04-15T02:00:51.039Z,5.50
2023-04-15T02:03:18.552Z,5.80
2023-04-15T02:05:45.523Z,5.80
2023-04-15T02:08:12.780Z,5.80
2023-04-15T02:10:39.825Z,7.10
2023-04-15T02:13:08.173Z,6.30
2023-04-15T02:15:35.084Z,6.40
2023-04-15T02:18:09.905Z,6.20
2023-04-15T02:20:37.491Z,6.10
2023-04-15T02:23:06.772Z,7.00
2023-04-15T02:25:34.671Z,6.70
2023-04-15T02:28:02.506Z,6.50
2023-04-15T02:30:30.310Z,6.50
2023-04-15T02:32:57.636Z,7.00
2023-04-15T02:35:25.399Z,6.40
2023-04-15T02:37:52.774Z,7.20
2023-04-15T02:40:19.913Z,6.50
2023-04-15T02:42:47.187Z,6.50
2023-04-15T02:45:16.339Z,5.90
2023-04-15T02:47:46.852Z,6.20
2023-04-15T02:50:14.684Z,6.40
2023-04-15T02:52:42.327Z,6.70
2023-04-15T02:55:11.091Z,6.30
2023-04-15T02:57:40.599Z,6.10
2023-04-15T03:00:11.017Z,5.90
2023-04-15T03:02:42.524Z,6.20
2023-04-15T03:05:13.476Z,6.40
2023-04-15T03:07:44.497Z,6.30
2023-04-15T03:10:12.449Z,6.60
2023-04-15T03:12:40.397Z,6.70
2023-04-15T03:15:09.720Z,6.70
2023-04-15T03:17:41.208Z,6.40
2023-04-15T03:20:09.071Z,6.10
2023-04-15T03:22:38.883Z,6.40
2023-04-15T03:25:06.344Z,6.30
2023-04-15T03:27:33.846Z,6.10
2023-04-15T03:30:08.495Z,6.40
2023-04-15T03:32:38.562Z,6.90
2023-04-15T03:35:07.696Z,5.90
2023-04-15T03:37:35.154Z,6.50
2023-04-15T03:40:02.162Z,6.10
2023-04-15T03:42:29.364Z,5.90
2023-04-15T03:44:57.603Z,5.90
2023-04-15T03:47:24.462Z,6.50
2023-04-15T03:49:51.222Z,6.20
2023-04-15T03:52:18.423Z,6.40
2023-04-15T03:54:45.523Z,5.90
2023-04-15T03:57:12.506Z,6.60
2023-04-15T03:59:39.933Z,6.20
2023-04-15T04:02:06.796Z,6.40
2023-04-15T04:04:33.691Z,6.40
2023-04-15T04:07:01.995Z,6.30
2023-04-15T04:09:29.350Z,6.40
2023-04-15T04:11:56.152Z,6.30
2023-04-15T04:14:29.128Z,6.10
2023-04-15T04:16:56.977Z,6.50
2023-04-15T04:19:23.802Z,6.30
2023-04-15T04:21:50.991Z,6.90
2023-04-15T04:24:17.986Z,6.30
2023-04-15T04:26:44.921Z,6.70
2023-04-15T04:29:20.367Z,6.40
2023-04-15T04:31:49.875Z,6.40
2023-04-15T04:34:17.062Z,6.50
2023-04-15T04:36:43.943Z,6.30
2023-04-15T04:39:12.925Z,6.40
2023-04-15T04:41:40.550Z,6.70
2023-04-15T04:44:07.422Z,7.10
2023-04-15T04:46:35.400Z,6.70
2023-04-15T04:49:03.180Z,6.40
2023-04-15T04:51:30.595Z,6.40
2023-04-15T04:53:58.223Z,6.40
2023-04-15T04:56:25.110Z,6.60
2023-04-15T04:58:55.049Z,6.70
2023-04-15T05:01:23.232Z,6.60
2023-04-15T05:03:50.517Z,6.60
2023-04-15T05:06:21.853Z,6.60
2023-04-15T05:08:50.211Z,6.10
2023-04-15T05:11:17.363Z,6.10
2023-04-15T05:13:44.174Z,6.60
2023-04-15T05:16:16.213Z,6.10
2023-04-15T05:18:43.797Z,6.40
2023-04-15T05:21:10.961Z,7.00
2023-04-15T05:23:37.790Z,6.80
2023-04-15T05:26:07.438Z,6.10
2023-04-15T05:28:35.670Z,6.10
2023-04-15T05:31:02.638Z,6.00
2023-04-15T05:33:31.214Z,6.60
2023-04-15T05:35:58.886Z,6.10
2023-04-15T05:38:26.541Z,5.70
2023-04-15T05:40:53.318Z,6.50
2023-04-15T05:43:23.287Z,5.80
2023-04-15T05:45:55.243Z,6.20
2023-04-15T05:48:22.553Z,6.10
2023-04-15T05:50:49.387Z,5.60
2023-04-15T05:53:17.607Z,5.60
2023-04-15T05:55:44.874Z,5.60
2023-04-15T05:58:12.077Z,5.70
2023-04-15T06:00:40.987Z,6.00
2023-04-15T06:03:11.158Z,6.30
2023-04-15T06:05:38.069Z,5.70
2023-04-15T06:08:05.213Z,5.40
2023-04-15T06:10:35.917Z,5.50
2023-04-15T06:13:03.682Z,5.80
2023-04-15T06:15:31.072Z,5.50
2023-04-15T06:17:57.866Z,6.00
2023-04-15T06:20:25.023Z,6.00
2023-04-15T06:22:52.125Z,5.60
2023-04-15T06:25:19.425Z,5.60
2023-04-15T06:27:47.672Z,5.40
2023-04-15T06:30:14.444Z,5.50
2023-04-15T06:32:41.477Z,5.60
2023-04-15T06:35:09.031Z,5.70
2023-04-15T06:37:36.153Z,6.30
2023-04-15T06:40:04.690Z,6.30
2023-04-15T06:42:32.501Z,5.60
2023-04-15T06:44:59.420Z,5.80
2023-04-15T06:47:27.257Z,5.50
2023-04-15T06:49:54.304Z,5.60
2023-04-15T06:52:21.145Z,5.60
2023-04-15T06:54:48.018Z,5.40
2023-04-15T06:57:15.526Z,5.30
2023-04-15T06:59:42.891Z,5.90
2023-04-15T07:02:10.420Z,6.00
2023-04-15T07:04:37.526Z,5.40
2023-04-15T07:07:05.445Z,5.10
2023-04-15T07:09:33.962Z,5.00
2023-04-15T07:12:00.926Z,5.30
2023-04-15T07:14:28.889Z,5.10
2023-04-15T07:16:58.175Z,5.10
2023-04-15T07:19:26.072Z,4.90
2023-04-15T07:21:52.903Z,4.90
2023-04-15T07:24:20.194Z,5.50
2023-04-15T07:26:50.587Z,5.00
2023-04-15T07:29:19.036Z,5.20
2023-04-15T07:31:45.824Z,5.00
2023-04-15T07:34:14.659Z,4.60
2023-04-15T07:36:43.536Z,5.00
2023-04-15T07:39:10.436Z,5.40
2023-04-15T07:41:37.651Z,5.00
2023-04-15T07:44:04.919Z,4.80
2023-04-15T07:46:31.777Z,4.60
2023-04-15T07:49:03.757Z,5.00
2023-04-15T07:51:31.658Z,4.80
2023-04-15T07:53:58.726Z,4.20
2023-04-15T07:56:25.994Z,4.80
2023-04-15T07:58:56.129Z,5.00
2023-04-15T08:01:24.783Z,5.00
2023-04-15T08:03:52.554Z,5.40
2023-04-15T08:06:22.267Z,5.00
2023-04-15T08:08:49.045Z,5.10
2023-04-15T08:11:17.588Z,4.80
2023-04-15T08:13:46.292Z,5.20
2023-04-15T08:16:23.997Z,5.10
2023-04-15T08:18:52.146Z,5.10
2023-04-15T08:21:19.566Z,4.70
2023-04-15T08:23:48.877Z,5.30
2023-04-15T08:26:17.040Z,4.50
2023-04-15T08:28:44.904Z,4.60
2023-04-15T08:31:12.842Z,5.60
2023-04-15T08:33:40.692Z,5.60
2023-04-15T08:36:11.662Z,5.40
2023-04-15T08:38:38.567Z,5.90
2023-04-15T08:41:22.714Z,5.50
2023-04-15T08:44:01.253Z,4.50
2023-04-15T08:46:35.255Z,4.50
2023-04-15T08:49:04.217Z,4.30
2023-04-15T08:51:36.302Z,4.40
2023-04-15T08:54:03.638Z,4.30
2023-04-15T08:56:35.290Z,4.60
2023-04-15T08:59:03.168Z,4.90
2023-04-15T09:01:31.809Z,5.00
2023-04-15T09:03:59.011Z,24.20
2023-04-15T09:06:26.688Z,8.80
2023-04-15T09:08:53.840Z,35.30
2023-04-15T09:11:22.237Z,20.20
2023-04-15T09:13:49.302Z,20.90
2023-04-15T09:16:16.224Z,11.40
2023-04-15T09:18:43.018Z,7.80
2023-04-15T09:21:10.786Z,5.90
2023-04-15T09:23:39.983Z,5.40
2023-04-15T09:26:07.096Z,4.80
2023-04-15T09:28:40.847Z,4.90
2023-04-15T09:31:07.732Z,4.30
2023-04-15T09:33:35.712Z,4.40
2023-04-15T09:36:04.564Z,4.90
2023-04-15T09:38:31.900Z,4.50
2023-04-15T09:40:58.788Z,4.70
2023-04-15T09:43:39.520Z,4.40
2023-04-15T09:46:06.348Z,4.50
2023-04-15T09:48:33.448Z,4.80
2023-04-15T09:51:00.824Z,4.70
2023-04-15T09:53:29.817Z,4.40
2023-04-15T09:56:02.848Z,5.10
2023-04-15T09:58:34.534Z,4.50
2023-04-15T10:01:03.827Z,5.00
2023-04-15T10:03:36.438Z,4.90
2023-04-15T10:06:04.963Z,4.90
2023-04-15T10:08:34.194Z,4.80
2023-04-15T10:11:04.569Z,4.90
2023-04-15T10:13:35.703Z,5.10
2023-04-15T10:16:14.443Z,4.60
2023-04-15T10:18:47.859Z,4.90
2023-04-15T10:21:17.966Z,5.00
2023-04-15T10:23:45.443Z,4.70
2023-04-15T10:26:14.322Z,4.70
2023-04-15T10:28:41.581Z,5.00
2023-04-15T10:31:11.126Z,4.80
2023-04-15T10:33:38.597Z,5.20
2023-04-15T10:36:05.998Z,5.30
2023-04-15T10:38:42.675Z,5.00
2023-04-15T10:41:21.421Z,4.80
2023-04-15T10:44:02.897Z,4.70
2023-04-15T10:46:37.534Z,4.80
2023-04-15T10:49:10.590Z,4.40
2023-04-15T10:51:43.174Z,5.00
2023-04-15T10:54:14.139Z,5.20
2023-04-15T10:56:44.833Z,5.10
2023-04-15T10:59:11.895Z,5.30
2023-04-15T11:02:01.450Z,4.50
2023-04-15T11:04:52.094Z,5.20
2023-04-15T11:07:46.344Z,4.70
2023-04-15T11:10:13.287Z,4.90
2023-04-15T11:12:41.353Z,5.50
2023-04-15T11:15:27.071Z,5.40
2023-04-15T11:17:53.906Z,5.30
2023-04-15T11:20:21.542Z,5.20
2023-04-15T11:22:49.636Z,5.20
2023-04-15T11:25:27.103Z,4.70
2023-04-15T11:27:54.135Z,4.60
2023-04-15T11:30:22.506Z,5.20
2023-04-15T11:32:50.551Z,5.10
2023-04-15T11:35:17.826Z,4.80
2023-04-15T11:37:45.788Z,5.10
2023-04-15T11:40:14.679Z,4.90
2023-04-15T11:42:49.464Z,5.40
2023-04-15T11:45:17.086Z,5.30
2023-04-15T11:47:44.393Z,4.80
2023-04-15T11:50:14.435Z,4.60
2023-04-15T11:52:53.517Z,4.90
2023-04-15T11:55:20.768Z,5.30
2023-04-15T11:57:47.663Z,5.30
2023-04-15T12:00:16.291Z,5.40
2023-04-15T12:02:44.480Z,5.20
2023-04-15T12:05:12.074Z,5.60
2023-04-15T12:07:57.984Z,4.60
2023-04-15T12:10:25.434Z,5.20
2023-04-15T12:12:53.030Z,5.20
2023-04-15T12:15:23.455Z,5.30
2023-04-15T12:17:54.174Z,5.10
2023-04-15T12:20:25.440Z,5.20
2023-04-15T12:22:53.137Z,5.20
2023-04-15T12:25:20.279Z,5.20
2023-04-15T12:27:51.811Z,4.90
2023-04-15T12:30:18.599Z,6.00
2023-04-15T12:32:45.598Z,4.90
2023-04-15T12:35:13.813Z,5.80
2023-04-15T12:37:40.765Z,6.10
2023-04-15T12:40:10.373Z,5.90
2023-04-15T12:42:37.713Z,5.70
2023-04-15T12:45:05.187Z,5.30
2023-04-15T12:47:32.987Z,5.40
2023-04-15T12:49:59.747Z,5.30
2023-04-15T12:52:26.644Z,5.10
2023-04-15T12:54:53.791Z,5.60
2023-04-15T12:57:21.292Z,5.20
2023-04-15T12:59:48.070Z,4.50
2023-04-15T13:02:15.235Z,5.10
2023-04-15T13:04:42.300Z,4.70
2023-04-15T13:07:09.302Z,5.30
2023-04-15T13:09:37.412Z,5.60
2023-04-15T13:12:05.497Z,5.10
2023-04-15T13:14:34.024Z,6.50
2023-04-15T13:17:02.209Z,8.50
2023-04-15T13:19:29.225Z,5.20
2023-04-15T13:21:56.528Z,6.60
2023-04-15T13:24:23.290Z,5.40
2023-04-15T13:26:50.441Z,6.30
2023-04-15T13:29:17.447Z,5.80
2023-04-15T13:31:45.225Z,7.60
2023-04-15T13:34:12.009Z,6.10
2023-04-15T13:36:38.739Z,5.10
2023-04-15T13:39:05.870Z,5.80
2023-04-15T13:41:33.136Z,6.90
2023-04-15T13:43:59.992Z,6.50
2023-04-15T13:46:26.981Z,7.00
2023-04-15T13:48:54.200Z,7.20
2023-04-15T13:51:21.229Z,7.50
2023-04-15T13:53:48.072Z,8.10
2023-04-15T13:56:14.826Z,6.40
2023-04-15T13:58:41.815Z,5.30
2023-04-15T14:01:08.893Z,5.10
2023-04-15T14:03:36.230Z,6.60
2023-04-15T14:06:05.462Z,15.20
2023-04-15T14:08:32.775Z,23.50
2023-04-15T14:11:00.155Z,9.80
2023-04-15T14:13:26.960Z,27.90
2023-04-15T14:15:54.248Z,8.40
2023-04-15T14:18:21.097Z,9.60
2023-04-15T14:20:50.507Z,10.90
2023-04-15T14:23:17.589Z,11.50
2023-04-15T14:25:46.714Z,17.20
2023-04-15T14:28:15.466Z,12.20
2023-04-15T14:30:42.366Z,8.60
2023-04-15T14:33:09.581Z,12.80
2023-04-15T14:35:37.389Z,9.70
2023-04-15T14:38:05.647Z,7.40
2023-04-15T14:40:33.102Z,6.60
2023-04-15T14:43:00.340Z,5.90
2023-04-15T14:45:27.331Z,5.60
2023-04-15T14:47:54.274Z,10.00
2023-04-15T14:50:21.298Z,7.30
2023-04-15T14:52:48.124Z,5.90
2023-04-15T14:55:15.546Z,7.10
2023-04-15T14:57:42.474Z,8.10
2023-04-15T15:00:10.836Z,7.80
2023-04-15T15:02:40.513Z,7.20
2023-04-15T15:05:09.582Z,9.80
2023-04-15T15:07:38.836Z,7.10
2023-04-15T15:10:06.856Z,8.30
2023-04-15T15:12:34.495Z,6.80
2023-04-15T15:15:04.899Z,8.20
2023-04-15T15:17:34.548Z,8.90
2023-04-15T15:20:02.953Z,7.10
2023-04-15T15:22:30.007Z,5.70
2023-04-15T15:24:58.625Z,5.20
2023-04-15T15:27:25.398Z,5.40
2023-04-15T15:29:52.168Z,5.10
2023-04-15T15:32:19.019Z,5.20
2023-04-15T15:34:45.875Z,6.50
2023-04-15T15:37:12.733Z,6.10
2023-04-15T15:39:41.469Z,6.40
2023-04-15T15:42:08.401Z,5.70
2023-04-15T15:44:37.805Z,5.20
2023-04-15T15:47:05.518Z,4.60
2023-04-15T15:49:32.554Z,4.90
2023-04-15T15:51:59.500Z,5.00
2023-04-15T15:54:26.323Z,4.90
2023-04-15T15:56:54.274Z,5.00
2023-04-15T15:59:21.301Z,4.70
2023-04-15T16:01:48.735Z,4.40
2023-04-15T16:04:16.705Z,4.60
2023-04-15T16:06:44.399Z,4.60
2023-04-15T16:09:12.658Z,4.80
2023-04-15T16:11:39.580Z,4.70
2023-04-15T16:14:07.419Z,5.10
2023-04-15T16:16:35.411Z,4.60
2023-04-15T16:19:02.523Z,4.40
2023-04-15T16:21:30.552Z,4.90
2023-04-15T16:23:57.310Z,4.80
2023-04-15T16:26:24.139Z,4.80
2023-04-15T16:28:50.894Z,5.20
2023-04-15T16:31:18.075Z,5.10
2023-04-15T16:33:44.945Z,4.90
2023-04-15T16:36:11.889Z,4.80
2023-04-15T16:38:39.464Z,5.40
2023-04-15T16:41:06.477Z,5.30
2023-04-15T16:43:33.421Z,5.80
2023-04-15T16:46:00.960Z,5.70
2023-04-15T16:48:28.001Z,5.70
2023-04-15T16:50:55.159Z,5.90
2023-04-15T16:53:22.542Z,5.40
2023-04-15T16:55:52.525Z,5.30
2023-04-15T16:58:19.874Z,5.20
2023-04-15T17:00:46.802Z,5.60
2023-04-15T17:03:13.762Z,5.80
2023-04-15T17:05:41.733Z,5.00
2023-04-15T17:08:08.625Z,5.70
2023-04-15T17:10:35.843Z,5.30
2023-04-15T17:13:02.891Z,6.00
2023-04-15T17:15:29.730Z,9.90
2023-04-15T17:17:56.614Z,6.30
2023-04-15T17:20:23.618Z,6.60
2023-04-15T17:22:51.600Z,5.90
2023-04-15T17:25:20.212Z,5.80
2023-04-15T17:27:47.293Z,6.40
2023-04-15T17:30:14.173Z,5.80
2023-04-15T17:32:42.134Z,5.60
2023-04-15T17:35:09.628Z,6.00
2023-04-15T17:37:36.777Z,5.60
2023-04-15T17:40:07.295Z,5.60
2023-04-15T17:42:35.528Z,5.50
2023-04-15T17:45:02.396Z,5.30
2023-04-15T17:47:29.575Z,5.30
2023-04-15T17:49:57.372Z,6.20
2023-04-15T17:52:24.616Z,6.40
2023-04-15T17:54:51.555Z,5.70
2023-04-15T17:57:19.345Z,5.40
2023-04-15T17:59:47.921Z,6.20
2023-04-15T18:02:15.335Z,6.30
2023-04-15T18:04:42.775Z,5.70
2023-04-15T18:07:09.683Z,5.40
2023-04-15T18:09:38.589Z,5.60
2023-04-15T18:12:06.972Z,6.90
2023-04-15T18:14:36.479Z,5.60
2023-04-15T18:17:03.665Z,6.20
2023-04-15T18:19:31.136Z,7.30
2023-04-15T18:21:59.451Z,6.50
2023-04-15T18:24:26.534Z,7.10
2023-04-15T18:26:53.404Z,6.40
2023-04-15T18:29:20.289Z,6.00
2023-04-15T18:31:47.129Z,6.50
2023-04-15T18:34:14.167Z,6.10
2023-04-15T18:36:40.942Z,6.20
2023-04-15T18:39:08.345Z,6.30
2023-04-15T18:41:35.308Z,6.10
2023-04-15T18:44:02.095Z,5.90
2023-04-15T18:46:29.084Z,5.90
2023-04-15T18:48:55.871Z,6.00
2023-04-15T18:51:22.695Z,6.00
2023-04-15T18:53:50.946Z,5.60
2023-04-15T18:56:20.272Z,6.00
2023-04-15T18:59:27.291Z,6.30
2023-04-15T19:01:34.953Z,5.80
2023-04-15T19:04:02.736Z,6.40
2023-04-15T19:06:32.104Z,5.60
2023-04-15T19:09:00.282Z,6.50
2023-04-15T19:11:27.114Z,6.10
2023-04-15T19:13:54.073Z,6.20
2023-04-15T19:16:21.151Z,6.10
2023-04-15T19:18:47.939Z,6.20
2023-04-15T19:21:14.892Z,6.10
2023-04-15T19:23:44.896Z,6.60
2023-04-15T19:26:11.924Z,6.20
2023-04-15T19:28:39.181Z,6.40
2023-04-15T19:31:06.103Z,6.30
2023-04-15T19:33:33.158Z,6.40
2023-04-15T19:36:04.434Z,7.20
2023-04-15T19:38:32.249Z,7.10
2023-04-15T19:40:59.369Z,6.70
2023-04-15T19:43:26.675Z,6.70
2023-04-15T19:45:54.004Z,7.00
2023-04-15T19:48:22.404Z,7.40
2023-04-15T19:50:50.451Z,7.00
2023-04-15T19:53:17.218Z,7.10
2023-04-15T19:55:44.157Z,7.60
2023-04-15T19:58:11.146Z,7.40
2023-04-15T20:00:38.275Z,6.80
2023-04-15T20:03:05.434Z,6.80
2023-04-15T20:05:32.952Z,6.70
2023-04-15T20:08:00.740Z,7.50
2023-04-15T20:10:31.087Z,7.60
2023-04-15T20:12:58.029Z,7.40
2023-04-15T20:15:25.482Z,6.90
2023-04-15T20:17:52.381Z,7.00
2023-04-15T20:20:20.743Z,7.50
2023-04-15T20:22:47.941Z,8.10
2023-04-15T20:25:15.691Z,7.50
2023-04-15T20:27:42.738Z,7.70
2023-04-15T20:30:10.359Z,7.40
2023-04-15T20:32:38.098Z,6.90
2023-04-15T20:35:06.321Z,7.30
2023-04-15T20:37:33.631Z,7.70
2023-04-15T20:40:00.849Z,7.50
2023-04-15T20:42:28.514Z,7.90
2023-04-15T20:44:55.424Z,8.00
2023-04-15T20:47:22.489Z,7.90
2023-04-15T20:49:49.659Z,7.50
2023-04-15T20:52:16.447Z,7.70
2023-04-15T20:54:43.625Z,9.10
2023-04-15T20:57:10.474Z,8.30
2023-04-15T20:59:37.330Z,8.40
2023-04-15T21:02:06.181Z,9.00
2023-04-15T21:04:33.910Z,8.60
2023-04-15T21:07:00.835Z,9.00
2023-04-15T21:09:27.892Z,9.20
2023-04-15T21:12:00.962Z,9.40
2023-04-15T21:14:28.597Z,9.10
2023-04-15T21:16:58.387Z,9.10
2023-04-15T21:19:25.417Z,9.20
2023-04-15T21:21:52.265Z,9.50
2023-04-15T21:24:19.066Z,10.30
2023-04-15T21:26:45.999Z,9.10
2023-04-15T21:29:13.091Z,9.60
2023-04-15T21:31:40.737Z,10.00
2023-04-15T21:34:07.670Z,10.20
2023-04-15T21:36:34.729Z,9.80
2023-04-15T21:39:01.546Z,10.30
2023-04-15T21:41:28.345Z,10.70
2023-04-15T21:43:55.295Z,11.00
2023-04-15T21:46:25.586Z,10.30
2023-04-15T21:48:59.927Z,10.30
2023-04-15T21:51:27.164Z,11.50
2023-04-15T21:53:55.339Z,10.70
2023-04-15T21:56:23.544Z,10.40
2023-04-15T21:58:50.716Z,10.70
2023-04-15T22:01:17.560Z,10.60
2023-04-15T22:03:44.694Z,10.60
2023-04-15T22:06:13.171Z,11.90
2023-04-15T22:08:55.207Z,11.30
2023-04-15T22:11:29.735Z,11.50
2023-04-15T22:13:57.198Z,12.60
2023-04-15T22:16:25.194Z,11.60
2023-04-15T22:18:52.307Z,12.30
2023-04-15T22:21:20.142Z,11.50
2023-04-15T22:23:47.987Z,11.50
2023-04-15T22:26:15.267Z,11.80
2023-04-15T22:28:42.782Z,12.70
2023-04-15T22:31:10.228Z,13.10
2023-04-15T22:33:38.108Z,13.20
2023-04-15T22:36:04.992Z,13.90
2023-04-15T22:38:32.105Z,12.80
2023-04-15T22:40:58.923Z,12.90
2023-04-15T22:43:26.815Z,12.90
2023-04-15T22:45:54.296Z,13.00
2023-04-15T22:48:21.221Z,12.80
2023-04-15T22:50:48.814Z,13.70
2023-04-15T22:53:16.954Z,12.90
2023-04-15T22:55:45.977Z,14.00
2023-04-15T22:58:13.354Z,13.80
2023-04-15T23:00:40.482Z,13.40
2023-04-15T23:03:07.999Z,13.70
2023-04-15T23:05:35.907Z,13.80
2023-04-15T23:08:02.911Z,13.90
2023-04-15T23:10:33.265Z,13.30
2023-04-15T23:13:00.266Z,13.40
2023-04-15T23:15:27.051Z,13.00
2023-04-15T23:17:54.150Z,14.20
2023-04-15T23:20:20.944Z,14.20
2023-04-15T23:22:47.798Z,13.10
2023-04-15T23:25:14.702Z,13.30
2023-04-15T23:27:41.594Z,13.60
2023-04-15T23:30:08.662Z,14.20
2023-04-15T23:32:36.406Z,13.90
2023-04-15T23:35:03.514Z,14.70
2023-04-15T23:37:33.278Z,14.30
2023-04-15T23:40:00.063Z,13.20
2023-04-15T23:42:27.024Z,15.20
2023-04-15T23:44:53.796Z,13.80
2023-04-15T23:47:21.168Z,14.50
2023-04-15T23:49:47.927Z,14.40
2023-04-15T23:52:15.148Z,14.90
2023-04-15T23:54:41.881Z,14.20
2023-04-15T23:57:08.676Z,14.20
2023-04-15T23:59:35.768Z,14.50
